createdAt,value
2018-10-12T00:04:09.714Z,100971.00
2018-10-12T00:09:04.322Z,100981.00
2018-10-12T00:13:57.706Z,100982.00
2018-10-12T00:18:51.001Z,100987.00
2018-10-12T00:23:44.266Z,101002.00
2018-10-12T00:28:37.566Z,101005.00
2018-10-12T00:33:30.891Z,101012.00
2018-10-12T00:38:24.128Z,101017.00
2018-10-12T00:43:17.433Z,101015.00
2018-10-12T00:48:10.695Z,101021.00
2018-10-12T00:53:04.014Z,101023.00
2018-10-12T00:57:57.265Z,101040.00
2018-10-12T01:02:50.540Z,101041.00
2018-10-12T01:07:43.942Z,101030.00
2018-10-12T01:12:37.761Z,101035.00
2018-10-12T01:17:31.839Z,101032.00
2018-10-12T01:22:26.032Z,101039.00
2018-10-12T01:27:19.311Z,101035.00
2018-10-12T01:32:18.349Z,101023.00
2018-10-12T01:37:11.645Z,101018.00
2018-10-12T01:42:04.908Z,101018.00
2018-10-12T01:46:58.192Z,101018.00
2018-10-12T01:51:51.461Z,101025.00
2018-10-12T01:56:44.734Z,101042.00
2018-10-12T02:01:37.963Z,101050.00
2018-10-12T02:06:31.257Z,101047.00
2018-10-12T02:11:24.570Z,101058.00
2018-10-12T02:16:18.808Z,101056.00
2018-10-12T02:21:12.129Z,101056.00
2018-10-12T02:26:05.532Z,101061.00
2018-10-12T02:30:58.843Z,101067.00
2018-10-12T02:35:52.089Z,101069.00
2018-10-12T02:40:45.381Z,101071.00
2018-10-12T02:45:38.590Z,101076.00
2018-10-12T02:50:31.823Z,101087.00
2018-10-12T02:55:25.095Z,101092.00
2018-10-12T03:00:18.377Z,101088.00
2018-10-12T03:05:11.609Z,101107.00
2018-10-12T03:10:04.924Z,101119.00
2018-10-12T03:14:58.200Z,101122.00
2018-10-12T03:19:51.441Z,101130.00
2018-10-12T03:24:44.707Z,101125.00
2018-10-12T03:29:38.621Z,101121.00
2018-10-12T03:34:32.084Z,101147.00
2018-10-12T03:39:25.408Z,101146.00
2018-10-12T03:44:18.675Z,101147.00
2018-10-12T03:49:11.975Z,101147.00
2018-10-12T03:54:05.215Z,101150.00
2018-10-12T03:58:58.596Z,101161.00
2018-10-12T04:03:51.853Z,101162.00
2018-10-12T04:08:45.131Z,101174.00
2018-10-12T04:13:38.347Z,101184.00
2018-10-12T04:18:31.625Z,101188.00
2018-10-12T04:23:24.892Z,101202.00
2018-10-12T04:28:18.157Z,101205.00
2018-10-12T04:33:12.419Z,101208.00
2018-10-12T04:38:06.153Z,101210.00
2018-10-12T04:42:59.742Z,101233.00
2018-10-12T04:47:53.219Z,101233.00
2018-10-12T04:52:46.503Z,101242.00
2018-10-12T04:57:39.791Z,101255.00
2018-10-12T05:02:33.054Z,101248.00
2018-10-12T05:07:27.570Z,101269.00
2018-10-12T05:12:20.856Z,101263.00
2018-10-12T05:17:14.184Z,101269.00
2018-10-12T05:22:07.653Z,101267.00
2018-10-12T05:27:00.852Z,101272.00
2018-10-12T05:31:54.074Z,101276.00
2018-10-12T05:36:47.635Z,101287.00
2018-10-12T05:41:41.727Z,101297.00
2018-10-12T05:46:34.988Z,101306.00
2018-10-12T05:51:28.370Z,101304.00
2018-10-12T05:56:38.909Z,101303.00
2018-10-12T06:01:32.174Z,101306.00
2018-10-12T06:06:25.448Z,101316.00
2018-10-12T06:11:18.785Z,101312.00
2018-10-12T06:16:12.028Z,101320.00
2018-10-12T06:21:05.483Z,101315.00
2018-10-12T06:25:58.984Z,101325.00
2018-10-12T06:30:52.231Z,101358.00
2018-10-12T06:35:45.477Z,101364.00
2018-10-12T06:40:38.776Z,101379.00
2018-10-12T06:45:32.051Z,101384.00
2018-10-12T06:50:25.288Z,101395.00
2018-10-12T06:55:18.496Z,101402.00
2018-10-12T07:00:11.781Z,101395.00
2018-10-12T07:05:05.151Z,101407.00
2018-10-12T07:09:58.447Z,101419.00
2018-10-12T07:14:51.718Z,101411.00
2018-10-12T07:19:44.953Z,101414.00
2018-10-12T07:24:38.236Z,101416.00
2018-10-12T07:29:31.513Z,101424.00
2018-10-12T07:34:24.803Z,101435.00
2018-10-12T07:39:18.769Z,101444.00
2018-10-12T07:44:11.988Z,101448.00
2018-10-12T07:49:05.509Z,101450.00
2018-10-12T07:53:58.759Z,101456.00
2018-10-12T07:58:52.210Z,101463.00
2018-10-12T08:03:45.450Z,101457.00
2018-10-12T08:08:38.716Z,101467.00
2018-10-12T08:13:32.038Z,101462.00
2018-10-12T08:18:26.833Z,101464.00
2018-10-12T08:23:20.129Z,101473.00
2018-10-12T08:28:13.492Z,101480.00
2018-10-12T08:33:07.473Z,101494.00
2018-10-12T08:38:00.817Z,101492.00
2018-10-12T08:42:54.043Z,101495.00
2018-10-12T08:47:47.336Z,101500.00
2018-10-12T08:52:40.601Z,101499.00
2018-10-12T08:57:33.863Z,101500.00
2018-10-12T09:02:27.086Z,101502.00
2018-10-12T09:07:21.357Z,101507.00
2018-10-12T09:12:14.663Z,101508.00
2018-10-12T09:17:11.809Z,101507.00
2018-10-12T09:22:11.721Z,101507.00
2018-10-12T09:27:08.126Z,101499.00
2018-10-12T09:32:06.332Z,101500.00
2018-10-12T09:37:04.974Z,101498.00
2018-10-12T09:42:07.049Z,101492.00
2018-10-12T09:47:05.556Z,101484.00
2018-10-12T09:52:03.992Z,101487.00
2018-10-12T09:57:06.905Z,101476.00
2018-10-12T10:02:09.159Z,101476.00
2018-10-12T10:07:07.399Z,101475.00
2018-10-12T10:12:06.161Z,101469.00
2018-10-12T10:17:03.403Z,101458.00
2018-10-12T10:22:01.899Z,101453.00
2018-10-12T10:26:59.506Z,101443.00
2018-10-12T10:31:56.952Z,101440.00
2018-10-12T10:36:55.220Z,101435.00
2018-10-12T10:41:56.732Z,101429.00
2018-10-12T10:46:55.857Z,101430.00
2018-10-12T10:51:53.543Z,101433.00
2018-10-12T10:56:51.264Z,101419.00
2018-10-12T11:01:50.496Z,101420.00
2018-10-12T11:06:46.506Z,101407.00
2018-10-12T11:11:39.816Z,101406.00
2018-10-12T11:16:33.434Z,101400.00
2018-10-12T11:21:26.664Z,101406.00
2018-10-12T11:26:20.051Z,101402.00
2018-10-12T11:31:13.314Z,101395.00
2018-10-12T11:36:06.786Z,101391.00
2018-10-12T11:41:00.168Z,101401.00
2018-10-12T11:45:53.459Z,101385.00
2018-10-12T11:50:46.711Z,101384.00
2018-10-12T11:55:39.958Z,101392.00
2018-10-12T12:00:33.237Z,101389.00
2018-10-12T12:05:26.503Z,101371.00
2018-10-12T12:10:20.440Z,101375.00
2018-10-12T12:15:13.698Z,101369.00
2018-10-12T12:20:06.995Z,101366.00
2018-10-12T12:25:00.412Z,101359.00
2018-10-12T12:29:53.725Z,101363.00
2018-10-12T12:34:47.061Z,101365.00
2018-10-12T12:39:40.264Z,101370.00
2018-10-12T12:44:33.547Z,101364.00
2018-10-12T12:49:27.028Z,101369.00
2018-10-12T12:54:20.723Z,101367.00
2018-10-12T12:59:14.057Z,101376.00
2018-10-12T13:04:07.451Z,101373.00
2018-10-12T13:09:00.721Z,101372.00
2018-10-12T13:13:53.999Z,101365.00
2018-10-12T13:18:47.380Z,101369.00
2018-10-12T13:23:40.667Z,101375.00
2018-10-12T13:28:34.047Z,101378.00
2018-10-12T13:33:27.306Z,101378.00
2018-10-12T13:38:21.611Z,101388.00
2018-10-12T13:43:14.868Z,101396.00
2018-10-12T13:48:08.117Z,101399.00
2018-10-12T13:53:01.429Z,101403.00
2018-10-12T13:57:54.685Z,101402.00
2018-10-12T14:02:47.940Z,101412.00
2018-10-12T14:07:41.253Z,101412.00
2018-10-12T14:12:35.179Z,101414.00
2018-10-12T14:17:28.484Z,101418.00
2018-10-12T14:22:21.757Z,101415.00
2018-10-12T14:27:15.708Z,101418.00
2018-10-12T14:32:09.014Z,101415.00
2018-10-12T14:37:02.288Z,101416.00
2018-10-12T14:41:55.580Z,101418.00
2018-10-12T14:46:49.309Z,101416.00
2018-10-12T14:51:42.645Z,101417.00
2018-10-12T14:56:35.958Z,101409.00
2018-10-12T15:01:29.218Z,101411.00
2018-10-12T15:06:23.076Z,101412.00
2018-10-12T15:11:16.526Z,101409.00
2018-10-12T15:16:09.768Z,101406.00
2018-10-12T15:21:03.061Z,101407.00
2018-10-12T15:25:56.520Z,101417.00
2018-10-12T15:30:49.797Z,101414.00
2018-10-12T15:35:43.066Z,101422.00
2018-10-12T15:40:36.664Z,101420.00
2018-10-12T15:45:30.585Z,101415.00
2018-10-12T15:50:24.164Z,101428.00
2018-10-12T15:55:17.343Z,101432.00
2018-10-12T16:00:13.186Z,101433.00
2018-10-12T16:05:06.624Z,101442.00
2018-10-12T16:09:59.982Z,101437.00
2018-10-12T16:14:53.367Z,101432.00
2018-10-12T16:19:46.564Z,101435.00
2018-10-12T16:24:59.660Z,101440.00
2018-10-12T16:29:53.717Z,101443.00
2018-10-12T16:34:47.204Z,101457.00
2018-10-12T16:39:40.486Z,101465.00
2018-10-12T16:44:33.808Z,101465.00
2018-10-12T16:49:27.066Z,101471.00
2018-10-12T16:54:20.325Z,101467.00
2018-10-12T16:59:14.231Z,101474.00
2018-10-12T17:04:07.635Z,101477.00
2018-10-12T17:09:00.913Z,101475.00
2018-10-12T17:13:54.243Z,101479.00
2018-10-12T17:18:47.571Z,101474.00
2018-10-12T17:23:40.854Z,101472.00
2018-10-12T17:28:34.838Z,101482.00
2018-10-12T17:33:29.222Z,101484.00
2018-10-12T17:38:22.462Z,101489.00
2018-10-12T17:43:16.291Z,101496.00
2018-10-12T17:48:09.747Z,101500.00
2018-10-12T17:53:03.015Z,101498.00
2018-10-12T17:57:56.317Z,101506.00
2018-10-12T18:02:49.626Z,101503.00
2018-10-12T18:07:42.890Z,101509.00
2018-10-12T18:12:36.179Z,101515.00
2018-10-12T18:17:29.444Z,101512.00
2018-10-12T18:22:22.720Z,101519.00
2018-10-12T18:27:15.965Z,101514.00
2018-10-12T18:32:09.216Z,101514.00
2018-10-12T18:37:02.509Z,101515.00
2018-10-12T18:41:55.694Z,101522.00
2018-10-12T18:46:48.953Z,101531.00
2018-10-12T18:51:42.259Z,101532.00
2018-10-12T18:56:35.766Z,101536.00
2018-10-12T19:01:29.056Z,101546.00
2018-10-12T19:06:22.323Z,101550.00
2018-10-12T19:11:15.599Z,101550.00
2018-10-12T19:16:09.449Z,101555.00
2018-10-12T19:21:02.735Z,101560.00
2018-10-12T19:25:56.031Z,101563.00
2018-10-12T19:30:49.865Z,101559.00
2018-10-12T19:35:43.069Z,101568.00
2018-10-12T19:40:36.310Z,101565.00
2018-10-12T19:45:29.640Z,101569.00
2018-10-12T19:50:22.864Z,101570.00
2018-10-12T19:55:16.130Z,101574.00
2018-10-12T20:00:10.339Z,101579.00
2018-10-12T20:05:03.761Z,101585.00
2018-10-12T20:09:56.998Z,101588.00
2018-10-12T20:14:50.258Z,101580.00
2018-10-12T20:19:43.509Z,101584.00
2018-10-12T20:24:36.987Z,101589.00
2018-10-12T20:29:30.887Z,101590.00
2018-10-12T20:34:24.121Z,101591.00
2018-10-12T20:39:17.435Z,101597.00
2018-10-12T20:44:10.628Z,101593.00
2018-10-12T20:49:04.128Z,101589.00
2018-10-12T20:53:58.806Z,101590.00
2018-10-12T20:58:52.769Z,101594.00
2018-10-12T21:03:46.113Z,101593.00
2018-10-12T21:08:39.333Z,101593.00
2018-10-12T21:13:32.616Z,101591.00
2018-10-12T21:18:26.677Z,101594.00
2018-10-12T21:23:19.965Z,101597.00
2018-10-12T21:28:13.311Z,101594.00
2018-10-12T21:33:06.526Z,101595.00
2018-10-12T21:37:59.830Z,101592.00
2018-10-12T21:42:53.058Z,101590.00
2018-10-12T21:47:46.935Z,101590.00
2018-10-12T21:52:40.264Z,101592.00
2018-10-12T21:57:33.461Z,101596.00
2018-10-12T22:02:27.190Z,101594.00
2018-10-12T22:07:20.462Z,101597.00
2018-10-12T22:12:13.715Z,101588.00
2018-10-12T22:17:06.991Z,101595.00
2018-10-12T22:22:00.263Z,101595.00
2018-10-12T22:26:53.592Z,101589.00
2018-10-12T22:31:46.909Z,101580.00
2018-10-12T22:36:40.175Z,101573.00
2018-10-12T22:41:33.413Z,101570.00
2018-10-12T22:51:31.978Z,101563.00
2018-10-12T22:56:25.189Z,101563.00
2018-10-12T23:01:18.453Z,101562.00
2018-10-12T23:06:11.797Z,101561.00
2018-10-12T23:11:05.505Z,101564.00
2018-10-12T23:15:59.348Z,101559.00
2018-10-12T23:20:52.640Z,101559.00
2018-10-12T23:25:45.855Z,101557.00
2018-10-12T23:30:39.151Z,101554.00
2018-10-12T23:35:32.423Z,101547.00
2018-10-12T23:40:25.688Z,101549.00
2018-10-12T23:45:18.946Z,101546.00
2018-10-12T23:50:12.212Z,101546.00
2018-10-12T23:55:05.615Z,101552.00
2018-10-12T23:59:58.843Z,101560.00
